createdAt,value
2018-10-02T06:15:10.919Z,9.3
2018-10-02T06:20:00.609Z,9.4
2018-10-02T06:25:00.328Z,9.4
2018-10-02T06:30:00.322Z,9.4
2018-10-02T06:35:00.355Z,9.6
2018-10-02T06:40:00.577Z,9.6
2018-10-02T06:45:00.518Z,9.6
2018-10-02T06:50:00.407Z,9.6
2018-10-02T06:55:00.352Z,9.7
2018-10-02T07:00:00.654Z,9.8
2018-10-02T07:05:00.329Z,9.8
2018-10-02T07:10:00.522Z,9.8
2018-10-02T07:15:00.486Z,9.9
2018-10-02T07:20:00.388Z,10
2018-10-02T07:25:00.429Z,10.1
2018-10-02T07:30:00.192Z,10
2018-10-02T07:35:00.165Z,10.1
2018-10-02T07:40:00.119Z,9.9
2018-10-02T07:45:00.283Z,10
2018-10-02T07:50:00.732Z,10.1
2018-10-02T07:55:00.222Z,9.9
2018-10-02T08:00:01.280Z,9.9
2018-10-02T08:05:00.576Z,10
2018-10-02T08:10:00.033Z,9.9
2018-10-02T08:15:00.351Z,10.2
2018-10-02T08:20:00.471Z,10.1
2018-10-02T08:25:00.031Z,10.2
2018-10-02T08:30:00.336Z,10.2
2018-10-02T08:35:00.042Z,10.3
2018-10-02T08:40:00.376Z,10.4
2018-10-02T08:45:00.477Z,10.6
2018-10-02T08:50:00.459Z,10.7
2018-10-02T08:55:00.172Z,10.8
2018-10-02T09:00:00.491Z,10.8
2018-10-02T09:05:00.192Z,10.9
2018-10-02T09:10:00.262Z,10.9
2018-10-02T09:15:00.284Z,10.9
2018-10-02T09:20:14.108Z,11.1
2018-10-02T09:24:59.953Z,11.3
2018-10-02T09:30:00.062Z,11.4
2018-10-02T09:35:00.144Z,11.5
2018-10-02T09:40:00.114Z,11.6
2018-10-02T09:45:00.008Z,11.7
2018-10-02T09:50:00.121Z,11.8
2018-10-02T09:55:00.171Z,11.9
2018-10-02T09:59:59.985Z,12
2018-10-02T10:05:00.137Z,12.1
2018-10-02T10:09:59.818Z,12.3
2018-10-02T10:14:59.907Z,12.4
2018-10-02T10:20:00.172Z,12.6
2018-10-02T10:25:00.303Z,12.8
2018-10-02T10:29:59.907Z,13.1
2018-10-02T10:35:00.086Z,13.2
2018-10-02T10:40:00.139Z,13.2
2018-10-02T10:44:59.765Z,13.3
2018-10-02T10:50:00.203Z,13.4
2018-10-02T10:54:59.757Z,13.6
2018-10-02T11:00:00.010Z,13.8
2018-10-02T11:05:00.042Z,14.1
2018-10-02T11:09:59.860Z,14.1
2018-10-02T11:15:00.067Z,14.1
2018-10-02T11:19:59.790Z,14.3
2018-10-02T11:25:00.124Z,14.4
2018-10-02T11:29:59.967Z,14.8
2018-10-02T11:35:00.077Z,15
2018-10-02T11:39:59.667Z,14.9
2018-10-02T11:44:59.875Z,14.8
2018-10-02T11:50:00.150Z,14.7
2018-10-02T11:54:59.852Z,14.6
2018-10-02T12:00:00.062Z,14.7
2018-10-02T12:04:59.946Z,14.8
2018-10-02T12:09:59.649Z,15.1
2018-10-02T12:14:59.925Z,15.1
2018-10-02T12:19:59.932Z,15.3
2018-10-02T12:25:00.675Z,15.1
2018-10-02T12:29:59.615Z,15.2
2018-10-02T12:34:59.997Z,15.3
2018-10-02T12:39:59.821Z,15.6
2018-10-02T12:44:59.923Z,16
2018-10-02T12:49:59.899Z,16
2018-10-02T12:54:59.595Z,16
2018-10-02T13:00:00.029Z,15.9
2018-10-02T13:04:59.666Z,15.8
2018-10-02T13:09:59.961Z,15.7
2018-10-02T13:14:59.780Z,15.6
2018-10-02T13:19:59.618Z,15.7
2018-10-02T13:24:59.888Z,15.4
2018-10-02T13:29:59.608Z,15.3
2018-10-02T13:34:59.852Z,15.2
2018-10-02T13:39:59.674Z,15.4
2018-10-02T13:44:59.895Z,15.5
2018-10-02T13:49:59.808Z,15.7
2018-10-02T13:54:59.784Z,15.5
2018-10-02T13:59:59.824Z,15.4
2018-10-02T14:04:59.562Z,15.6
2018-10-02T14:09:59.803Z,15.6
2018-10-02T14:15:02.337Z,15.5
2018-10-02T14:19:59.846Z,15.6
2018-10-02T14:24:59.495Z,15.5
2018-10-02T14:29:59.674Z,15.4
2018-10-02T14:34:59.756Z,15.6
2018-10-02T14:39:59.855Z,15.4
2018-10-02T14:44:59.645Z,15.4
2018-10-02T14:49:59.748Z,15.1
2018-10-02T14:54:59.949Z,15.3
2018-10-02T14:59:59.889Z,15.1
2018-10-02T15:04:59.735Z,15.2
2018-10-02T15:09:59.379Z,15.6
2018-10-02T15:14:59.700Z,15.9
2018-10-02T15:19:59.696Z,16.1
2018-10-02T15:24:59.578Z,15.6
2018-10-02T15:30:00.117Z,15.3
2018-10-02T15:34:59.540Z,15.3
2018-10-02T15:39:59.592Z,15.3
2018-10-02T15:44:59.661Z,15.2
2018-10-02T15:49:59.418Z,15.5
2018-10-02T15:54:59.950Z,15.2
2018-10-02T16:00:00.097Z,15
2018-10-02T16:04:59.266Z,14.7
2018-10-02T16:09:59.810Z,14.9
2018-10-02T16:14:59.293Z,14.8
2018-10-02T16:19:59.385Z,14.8
2018-10-02T16:24:59.993Z,14.6
2018-10-02T16:29:59.616Z,14.4
2018-10-02T16:34:59.492Z,14.3
2018-10-02T16:39:59.827Z,14.1
2018-10-02T16:44:59.547Z,14.4
2018-10-02T16:49:59.317Z,13.9
2018-10-02T16:54:59.622Z,13.8
2018-10-02T16:59:59.437Z,13.8
2018-10-02T17:04:59.303Z,13.8
2018-10-02T17:09:59.509Z,13.6
2018-10-02T17:14:59.514Z,13.6
2018-10-02T17:19:59.271Z,13.8
2018-10-02T17:24:59.296Z,13.5
2018-10-02T17:29:59.944Z,13.5
2018-10-02T17:34:59.269Z,13.4
2018-10-02T17:39:59.600Z,13.3
2018-10-02T17:44:59.268Z,13.3
2018-10-02T17:49:59.810Z,13.3
2018-10-02T17:54:59.188Z,13.3
2018-10-02T17:59:59.314Z,13.1
2018-10-02T18:04:59.417Z,13
2018-10-02T18:09:59.157Z,13.2
2018-10-02T18:14:59.322Z,13
2018-10-02T18:19:59.180Z,13
2018-10-02T18:24:59.302Z,13.2
2018-10-02T18:29:59.227Z,13.1
2018-10-02T18:34:59.212Z,13
2018-10-02T18:39:59.172Z,12.9
2018-10-02T18:44:59.664Z,13.1
2018-10-02T18:49:59.596Z,13
2018-10-02T18:54:59.198Z,13
2018-10-02T18:59:59.345Z,12.9
2018-10-02T19:04:59.061Z,13
2018-10-02T19:09:59.237Z,12.9
2018-10-02T19:14:59.315Z,12.9
2018-10-02T19:19:59.019Z,12.9
2018-10-02T19:24:59.163Z,12.9
2018-10-02T19:29:59.394Z,13
2018-10-02T19:34:59.544Z,12.8
2018-10-02T19:39:59.254Z,12.9
2018-10-02T19:44:59.166Z,12.9
2018-10-02T19:49:59.234Z,13
2018-10-02T19:54:59.239Z,13
2018-10-02T19:59:59.244Z,12.9
2018-10-02T20:04:59.255Z,12.9
2018-10-02T20:09:58.942Z,12.8
2018-10-02T20:14:59.250Z,12.9
2018-10-02T20:19:59.348Z,12.7
2018-10-02T20:24:58.926Z,12.8
2018-10-02T20:29:59.558Z,13.1
2018-10-02T20:34:59.263Z,12.9
2018-10-02T20:39:59.016Z,13
2018-10-02T20:44:59.115Z,12.8
2018-10-02T20:49:59.380Z,12.8
2018-10-02T20:54:58.865Z,12.8
2018-10-02T20:59:59.136Z,12.8
2018-10-02T21:04:59.532Z,12.7
2018-10-02T21:09:59.170Z,12.6
2018-10-02T21:14:59.139Z,12.4
2018-10-02T21:19:59.116Z,12.2
2018-10-02T21:24:58.871Z,12.3
2018-10-02T21:29:59.316Z,12.2
2018-10-02T21:34:58.971Z,12
2018-10-02T21:40:07.155Z,12
2018-10-02T21:44:59.776Z,11.9
2018-10-02T21:49:59.086Z,12
2018-10-02T21:54:58.991Z,11.9
2018-10-02T21:59:59.416Z,11.8
2018-10-02T22:04:59.145Z,11.7
2018-10-02T22:09:58.867Z,11.6
2018-10-02T22:14:59.154Z,11.7
2018-10-02T22:19:58.803Z,11.6
2018-10-02T22:24:59.420Z,11.6
2018-10-02T22:29:59.031Z,11.5
2018-10-02T22:34:59.423Z,11.5
2018-10-02T22:39:58.913Z,11.6
2018-10-02T22:44:58.967Z,11.5
2018-10-02T22:49:59.157Z,11.5
2018-10-02T22:54:58.909Z,11.5
2018-10-02T22:59:59.226Z,11.3
2018-10-02T23:04:59.367Z,11.2
2018-10-02T23:09:59.053Z,11
2018-10-02T23:15:00.427Z,11.1
2018-10-02T23:19:59.322Z,11.2
2018-10-02T23:24:59.089Z,11.3
2018-10-02T23:30:00.158Z,11.2
2018-10-02T23:34:58.807Z,11.1
2018-10-02T23:39:58.916Z,11.1
2018-10-02T23:44:59.011Z,10.9
2018-10-02T23:49:59.187Z,10.7
2018-10-02T23:54:58.885Z,10.9
2018-10-02T23:59:59.383Z,10.9
